Aviation Digital Data Service (ADDS)

Output produced by METARs form (0814 UTC 26 April 2015)
found at http://aviationweather.gov/adds/metars/
 
METAR text: KBFM 260753Z AUTO 27003KT 10SM CLR 19/18 A2975 RMK AO2 SLP073 T01940178
Conditions at: KBFM (MOBILE/BROOKLEY , AL, US) observed 0753 UTC 26 April 2015
Temperature: 19.4°C (67°F)
Dewpoint: 17.8°C (64°F) [RH = 90%]
Pressure (altimeter): 29.75 inches Hg (1007.5 mb)
[Sea-level pressure: 1007.3 mb]
Winds: from the W (270 degrees) at 3 MPH (3 knots; 1.6 m/s)
Visibility: 10 or more miles (16+ km)
Ceiling: at least 12,000 feet AGL
Clouds: sky clear below 12,000 feet AGL
Weather: automated observation with no human augmentation;
there may or may not be significant weather present at this time